Time;durP1;ratioP1;P1;durP2;ratioP2;P2;SDS_P1;SDS_P2;PMS_P1;PMS_P2;Temp;Humidity;BMP_temperature;BMP_pressure;BME280_temperature;BME280_humidity;BME280_pressure;Samples;Min_cycle;Max_cycle;Signal;HPM_P1;HPM_P2
2023/04/11 00:00:16;;;;;;;;;;;7.70;99.90;;;;;;5105406;28;20292;-77
2023/04/11 00:02:41;;;;;;;;;;;7.70;99.90;;;;;;5084414;28;19920;-77
2023/04/11 00:05:07;;;;;;;;;;;7.70;99.90;;;;;;5099534;28;19965;-77
2023/04/11 00:07:33;;;;;;;;;;;7.70;99.90;;;;;;5083777;28;19924;-78
2023/04/11 00:09:59;;;;;;;;;;;7.70;99.90;;;;;;5082460;28;19916;-77
2023/04/11 00:12:24;;;;;;;;;;;7.70;99.90;;;;;;5088539;28;21434;-77
2023/04/11 00:14:52;;;;;;;;;;;7.70;99.90;;;;;;5102690;28;19941;-77
2023/04/11 00:17:22;;;;;;;;;;;7.80;99.90;;;;;;5106235;27;20022;-77
2023/04/11 00:19:48;;;;;;;;;;;7.70;99.90;;;;;;5091190;27;19915;-78
2023/04/11 00:22:16;;;;;;;;;;;7.80;99.90;;;;;;5086543;27;20426;-77
2023/04/11 00:24:42;;;;;;;;;;;7.70;99.90;;;;;;5091743;27;19915;-77
2023/04/11 00:27:07;;;;;;;;;;;7.70;99.90;;;;;;5112153;27;19992;-77
2023/04/11 00:29:34;;;;;;;;;;;7.70;99.90;;;;;;5092836;27;19923;-77
2023/04/11 00:32:00;;;;;;;;;;;7.70;99.90;;;;;;5112619;27;19918;-77
2023/04/11 00:34:26;;;;;;;;;;;7.60;99.90;;;;;;5108751;27;20321;-77
2023/04/11 00:36:51;;;;;;;;;;;7.60;99.90;;;;;;5105772;27;19972;-77
2023/04/11 00:39:19;;;;;;;;;;;7.50;99.90;;;;;;5109128;27;19970;-77
2023/04/11 00:41:45;;;;;;;;;;;7.50;99.90;;;;;;5093685;27;20002;-77
2023/04/11 00:44:10;;;;;;;;;;;7.50;99.90;;;;;;5107925;27;20059;-77
2023/04/11 00:46:36;;;;;;;;;;;7.40;99.90;;;;;;5106664;27;20389;-77
2023/04/11 00:49:02;;;;;;;;;;;7.30;99.90;;;;;;5103406;27;19923;-77
2023/04/11 00:51:27;;;;;;;;;;;7.40;99.90;;;;;;5106111;27;20513;-77
2023/04/11 00:53:53;;;;;;;;;;;7.30;99.90;;;;;;5090628;27;20395;-77
2023/04/11 00:56:19;;;;;;;;;;;7.30;99.90;;;;;;5089965;27;19927;-77
2023/04/11 00:58:45;;;;;;;;;;;7.30;99.90;;;;;;5098370;27;19915;-77
2023/04/11 01:01:10;;;;;;;;;;;7.30;99.90;;;;;;5088713;27;19919;-77
2023/04/11 01:03:40;;;;;;;;;;;7.30;99.90;;;;;;5092051;27;19916;-77
2023/04/11 01:06:06;;;;;;;;;;;7.30;99.90;;;;;;5107705;27;19950;-77
2023/04/11 01:08:32;;;;;;;;;;;7.30;99.90;;;;;;5091796;27;19916;-77
2023/04/11 01:10:58;;;;;;;;;;;7.30;99.90;;;;;;5109600;27;19935;-77
2023/04/11 01:13:24;;;;;;;;;;;7.30;99.90;;;;;;5112298;27;21111;-77
2023/04/11 01:15:51;;;;;;;;;;;7.30;99.90;;;;;;5114331;27;19939;-76
2023/04/11 01:18:16;;;;;;;;;;;7.30;99.90;;;;;;5091092;27;20380;-77
2023/04/11 01:20:42;;;;;;;;;;;7.40;99.90;;;;;;5090764;27;19915;-77
2023/04/11 01:23:09;;;;;;;;;;;7.50;99.90;;;;;;5087139;27;19919;-77
2023/04/11 01:25:34;;;;;;;;;;;7.40;99.90;;;;;;5086864;27;19916;-77
2023/04/11 01:28:00;;;;;;;;;;;7.50;99.90;;;;;;5109051;27;20176;-77
2023/04/11 01:30:26;;;;;;;;;;;7.50;99.90;;;;;;5104613;27;19923;-78
2023/04/11 01:32:51;;;;;;;;;;;7.50;99.90;;;;;;5105792;27;20170;-77
2023/04/11 01:35:17;;;;;;;;;;;7.50;99.90;;;;;;5105891;27;19915;-77
2023/04/11 01:37:43;;;;;;;;;;;7.50;99.90;;;;;;5092485;27;19927;-78
2023/04/11 01:40:08;;;;;;;;;;;7.50;99.90;;;;;;5107637;27;19927;-77
2023/04/11 01:42:35;;;;;;;;;;;7.40;99.90;;;;;;5111558;27;19955;-78
2023/04/11 01:45:01;;;;;;;;;;;7.40;99.90;;;;;;5085797;27;19915;-77
2023/04/11 01:47:27;;;;;;;;;;;7.40;99.90;;;;;;5096501;27;19915;-77
2023/04/11 01:49:52;;;;;;;;;;;7.40;99.90;;;;;;5108895;27;19922;-77
2023/04/11 01:52:18;;;;;;;;;;;7.40;99.90;;;;;;5102480;27;19934;-77
2023/04/11 01:54:44;;;;;;;;;;;7.40;99.90;;;;;;5109102;27;20368;-77
2023/04/11 01:57:09;;;;;;;;;;;7.40;99.90;;;;;;5090900;27;19959;-77
2023/04/11 01:59:35;;;;;;;;;;;7.30;99.90;;;;;;5087254;27;20018;-77
2023/04/11 02:02:00;;;;;;;;;;;7.40;99.90;;;;;;5091264;27;19954;-77
2023/04/11 02:04:26;;;;;;;;;;;7.40;99.90;;;;;;5085805;27;19919;-77
2023/04/11 02:06:51;;;;;;;;;;;7.40;99.90;;;;;;5105760;27;19947;-78
2023/04/11 02:09:17;;;;;;;;;;;7.30;99.90;;;;;;5110152;27;19919;-78
2023/04/11 02:11:42;;;;;;;;;;;7.40;99.90;;;;;;5108752;27;20265;-77
2023/04/11 02:14:09;;;;;;;;;;;7.50;99.90;;;;;;5091975;27;19968;-77
2023/04/11 02:16:48;;;;;;;;;;;7.50;99.90;;;;;;5103179;27;19965;-77
2023/04/11 02:19:14;;;;;;;;;;;7.50;99.90;;;;;;5103856;27;20403;-77
2023/04/11 02:21:39;;;;;;;;;;;7.50;99.90;;;;;;5088593;27;20028;-77
2023/04/11 02:24:05;;;;;;;;;;;7.50;99.90;;;;;;5087295;27;20002;-77
2023/04/11 02:26:30;;;;;;;;;;;7.50;99.90;;;;;;5088916;27;19925;-77
2023/04/11 02:28:56;;;;;;;;;;;7.40;99.90;;;;;;5105528;27;19915;-77
2023/04/11 02:31:21;;;;;;;;;;;7.50;99.90;;;;;;5106143;27;19962;-77
2023/04/11 02:33:47;;;;;;;;;;;7.50;99.90;;;;;;5089761;27;19922;-77
2023/04/11 02:36:13;;;;;;;;;;;7.50;99.90;;;;;;5105914;27;19973;-77
2023/04/11 02:38:38;;;;;;;;;;;7.50;99.90;;;;;;5111795;27;20261;-77
2023/04/11 02:41:04;;;;;;;;;;;7.40;99.90;;;;;;5108462;27;19919;-77
2023/04/11 02:43:30;;;;;;;;;;;7.40;99.90;;;;;;5108232;27;19998;-77
2023/04/11 02:45:55;;;;;;;;;;;7.40;99.90;;;;;;5090448;27;20006;-78
2023/04/11 02:48:21;;;;;;;;;;;7.40;99.90;;;;;;5089429;27;19925;-78
2023/04/11 02:50:47;;;;;;;;;;;7.40;99.90;;;;;;5102620;27;19963;-77
2023/04/11 02:53:15;;;;;;;;;;;7.30;99.90;;;;;;5105933;27;19923;-77
2023/04/11 02:55:40;;;;;;;;;;;7.40;99.90;;;;;;5092789;27;20376;-77
2023/04/11 02:58:06;;;;;;;;;;;7.30;99.90;;;;;;5086004;27;19961;-77
2023/04/11 03:00:31;;;;;;;;;;;7.30;99.90;;;;;;5107325;27;19970;-77
2023/04/11 03:02:57;;;;;;;;;;;7.30;99.90;;;;;;5087034;27;19937;-77
2023/04/11 03:05:23;;;;;;;;;;;7.30;99.90;;;;;;5090736;27;19919;-78
2023/04/11 03:07:49;;;;;;;;;;;7.40;99.90;;;;;;5103773;27;19988;-78
2023/04/11 03:10:14;;;;;;;;;;;7.40;99.90;;;;;;5090662;27;19915;-78
2023/04/11 03:12:40;;;;;;;;;;;7.40;99.90;;;;;;5091509;27;20077;-78
2023/04/11 03:15:06;;;;;;;;;;;7.40;99.90;;;;;;5108828;27;19962;-78
2023/04/11 03:17:32;;;;;;;;;;;7.40;99.90;;;;;;5107550;27;20566;-78
2023/04/11 03:19:57;;;;;;;;;;;7.40;99.90;;;;;;5096480;27;19919;-78
2023/04/11 03:22:23;;;;;;;;;;;7.40;99.90;;;;;;5088258;28;19920;-79
2023/04/11 03:24:49;;;;;;;;;;;7.40;99.90;;;;;;5087189;27;19915;-79
2023/04/11 03:27:14;;;;;;;;;;;7.40;99.90;;;;;;5107677;27;19924;-79
2023/04/11 03:29:40;;;;;;;;;;;7.40;99.90;;;;;;5104187;27;20460;-78
2023/04/11 03:32:05;;;;;;;;;;;7.40;99.90;;;;;;5108814;27;19919;-78
2023/04/11 03:34:31;;;;;;;;;;;7.40;99.90;;;;;;5101980;27;20004;-78
2023/04/11 03:36:56;;;;;;;;;;;7.40;99.90;;;;;;5093672;27;20287;-78
2023/04/11 03:39:22;;;;;;;;;;;7.40;99.90;;;;;;5103608;27;20392;-78
2023/04/11 03:41:48;;;;;;;;;;;7.40;99.90;;;;;;5087352;28;19922;-77
2023/04/11 03:44:14;;;;;;;;;;;7.40;99.90;;;;;;5099961;27;19923;-77
2023/04/11 03:46:39;;;;;;;;;;;7.40;99.90;;;;;;5088740;28;19919;-78
2023/04/11 03:49:05;;;;;;;;;;;7.50;99.90;;;;;;5089968;28;19915;-78
2023/04/11 03:51:31;;;;;;;;;;;7.50;99.90;;;;;;5103329;28;19974;-77
2023/04/11 03:53:57;;;;;;;;;;;7.50;99.90;;;;;;5090576;28;19922;-77
2023/04/11 03:56:22;;;;;;;;;;;7.50;99.90;;;;;;5109627;27;19924;-77
2023/04/11 03:58:48;;;;;;;;;;;7.50;99.90;;;;;;5099641;27;19923;-78
2023/04/11 04:01:13;;;;;;;;;;;7.50;99.90;;;;;;5093456;27;19916;-78
2023/04/11 04:03:39;;;;;;;;;;;7.60;99.90;;;;;;5112760;27;19923;-76
2023/04/11 04:06:04;;;;;;;;;;;7.60;99.90;;;;;;5091071;27;20368;-78
2023/04/11 04:08:30;;;;;;;;;;;7.60;99.90;;;;;;5094218;27;19994;-78
2023/04/11 04:10:56;;;;;;;;;;;7.60;99.90;;;;;;5108863;27;19927;-77
2023/04/11 04:13:21;;;;;;;;;;;7.60;99.90;;;;;;5090310;27;19947;-78
2023/04/11 04:15:48;;;;;;;;;;;7.70;99.90;;;;;;5110606;27;19942;-78
2023/04/11 04:18:14;;;;;;;;;;;7.70;99.90;;;;;;5086011;27;19970;-78
2023/04/11 04:20:40;;;;;;;;;;;7.70;99.90;;;;;;5092722;27;19950;-78
2023/04/11 04:23:05;;;;;;;;;;;7.70;99.90;;;;;;5114024;27;19934;-77
2023/04/11 04:25:31;;;;;;;;;;;7.70;99.90;;;;;;5091531;27;19923;-77
2023/04/11 04:27:59;;;;;;;;;;;7.80;99.90;;;;;;5111471;27;19919;-77
2023/04/11 04:30:27;;;;;;;;;;;7.80;99.90;;;;;;5093344;27;19922;-77
2023/04/11 04:32:57;;;;;;;;;;;7.80;99.90;;;;;;5090418;27;20354;-77
2023/04/11 04:35:23;;;;;;;;;;;7.80;99.90;;;;;;5112802;27;19971;-77
2023/04/11 04:37:49;;;;;;;;;;;7.80;99.90;;;;;;5108323;27;19916;-76
2023/04/11 04:40:19;;;;;;;;;;;7.90;99.90;;;;;;5113647;27;19941;-77
2023/04/11 04:42:48;;;;;;;;;;;7.90;99.90;;;;;;5087020;27;20379;-77
2023/04/11 04:45:14;;;;;;;;;;;8.00;99.90;;;;;;5086710;27;19990;-77
2023/04/11 04:47:40;;;;;;;;;;;7.90;99.90;;;;;;5108236;27;20431;-75
2023/04/11 04:50:06;;;;;;;;;;;7.90;99.90;;;;;;5093041;27;19921;-77
2023/04/11 04:52:32;;;;;;;;;;;7.80;99.90;;;;;;5110711;27;19930;-77
2023/04/11 04:54:57;;;;;;;;;;;7.80;99.90;;;;;;5108051;27;19916;-77
2023/04/11 04:57:27;;;;;;;;;;;7.80;99.90;;;;;;5110735;27;20062;-78
2023/04/11 04:59:53;;;;;;;;;;;7.80;99.90;;;;;;5091269;27;19934;-77
2023/04/11 05:02:18;;;;;;;;;;;7.80;99.90;;;;;;5103295;27;20067;-77
2023/04/11 05:04:44;;;;;;;;;;;7.80;99.90;;;;;;5088664;27;19947;-77
2023/04/11 05:07:12;;;;;;;;;;;7.80;99.90;;;;;;5091786;27;20002;-77
2023/04/11 05:09:38;;;;;;;;;;;7.80;99.90;;;;;;5109930;27;19920;-77
2023/04/11 05:12:04;;;;;;;;;;;7.80;99.90;;;;;;5108128;27;19930;-77
2023/04/11 05:14:29;;;;;;;;;;;7.80;99.90;;;;;;5092100;27;20330;-76
2023/04/11 05:16:55;;;;;;;;;;;7.70;99.90;;;;;;5100401;27;19920;-77
2023/04/11 05:19:20;;;;;;;;;;;7.80;99.90;;;;;;5091333;27;19919;-77
2023/04/11 05:21:46;;;;;;;;;;;7.70;99.90;;;;;;5090340;27;20340;-77
2023/04/11 05:24:12;;;;;;;;;;;7.80;99.90;;;;;;5109967;27;19915;-77
2023/04/11 05:26:37;;;;;;;;;;;7.80;99.90;;;;;;5107713;27;19924;-77
2023/04/11 05:29:03;;;;;;;;;;;7.80;99.90;;;;;;5092787;27;19927;-76
2023/04/11 05:31:28;;;;;;;;;;;7.80;99.90;;;;;;5111396;27;20288;-77
2023/04/11 05:33:55;;;;;;;;;;;7.80;99.90;;;;;;5093066;27;19969;-77
2023/04/11 05:36:20;;;;;;;;;;;7.80;99.90;;;;;;5100770;27;19935;-77
2023/04/11 05:38:46;;;;;;;;;;;7.80;99.90;;;;;;5108839;27;19915;-78
2023/04/11 05:41:11;;;;;;;;;;;7.80;99.90;;;;;;5090029;27;20428;-77
2023/04/11 05:43:37;;;;;;;;;;;7.80;99.90;;;;;;5111401;27;20051;-77
2023/04/11 05:46:03;;;;;;;;;;;7.80;99.90;;;;;;5103922;27;19922;-77
2023/04/11 05:48:29;;;;;;;;;;;7.80;99.90;;;;;;5101916;27;19950;-76
2023/04/11 05:50:55;;;;;;;;;;;7.80;99.90;;;;;;5087408;27;19922;-77
2023/04/11 05:53:21;;;;;;;;;;;7.80;99.90;;;;;;5105335;27;20461;-77
2023/04/11 05:55:46;;;;;;;;;;;7.80;99.90;;;;;;5088296;27;19919;-77
2023/04/11 05:58:12;;;;;;;;;;;7.80;99.90;;;;;;5110723;27;20384;-77
2023/04/11 06:00:37;;;;;;;;;;;7.80;99.90;;;;;;5101388;27;19924;-77
2023/04/11 06:03:04;;;;;;;;;;;7.90;99.90;;;;;;5092441;27;19919;-78
2023/04/11 06:05:30;;;;;;;;;;;7.90;99.90;;;;;;5099124;27;20002;-78
2023/04/11 06:07:57;;;;;;;;;;;7.80;99.90;;;;;;5086781;28;20384;-78
2023/04/11 06:10:22;;;;;;;;;;;7.80;99.90;;;;;;5108365;27;19915;-77
2023/04/11 06:12:48;;;;;;;;;;;7.90;99.90;;;;;;5104004;27;19942;-78
2023/04/11 06:15:14;;;;;;;;;;;7.90;99.90;;;;;;5089666;27;20385;-78
2023/04/11 06:17:39;;;;;;;;;;;7.90;99.90;;;;;;5083381;27;19927;-78
2023/04/11 06:20:06;;;;;;;;;;;8.00;99.90;;;;;;5106697;27;19927;-78
2023/04/11 06:22:31;;;;;;;;;;;8.00;99.90;;;;;;5111680;27;19926;-77
2023/04/11 06:24:57;;;;;;;;;;;8.00;99.90;;;;;;5109438;27;19915;-78
2023/04/11 06:27:22;;;;;;;;;;;8.00;99.90;;;;;;5089643;27;19926;-78
2023/04/11 06:29:48;;;;;;;;;;;8.00;99.90;;;;;;5099218;27;20513;-77
2023/04/11 06:32:14;;;;;;;;;;;8.10;99.90;;;;;;5088599;27;20380;-78
2023/04/11 06:34:39;;;;;;;;;;;8.10;99.90;;;;;;5090468;27;19919;-78
2023/04/11 06:37:08;;;;;;;;;;;8.10;99.90;;;;;;5084039;27;20392;-78
2023/04/11 06:39:34;;;;;;;;;;;8.20;99.90;;;;;;5104839;27;20023;-78
2023/04/11 06:42:00;;;;;;;;;;;8.20;99.90;;;;;;5080543;27;19919;-79
2023/04/11 06:44:25;;;;;;;;;;;8.30;99.90;;;;;;5090045;27;19915;-79
2023/04/11 06:46:51;;;;;;;;;;;8.20;99.90;;;;;;5102766;27;19923;-78
2023/04/11 06:49:17;;;;;;;;;;;8.20;99.90;;;;;;5084593;27;19922;-78
2023/04/11 06:51:46;;;;;;;;;;;8.30;99.90;;;;;;5096206;27;19919;-78
2023/04/11 06:54:11;;;;;;;;;;;8.30;99.90;;;;;;5107334;27;19915;-78
2023/04/11 06:56:37;;;;;;;;;;;8.20;99.90;;;;;;5104589;27;20374;-78
2023/04/11 06:59:02;;;;;;;;;;;8.40;99.90;;;;;;5089199;27;19968;-78
2023/04/11 07:01:34;;;;;;;;;;;8.40;99.90;;;;;;5109044;27;19954;-78
2023/04/11 07:04:00;;;;;;;;;;;8.30;99.90;;;;;;5106250;27;19915;-79
2023/04/11 07:06:26;;;;;;;;;;;8.30;99.90;;;;;;5103336;27;19916;-78
2023/04/11 07:08:51;;;;;;;;;;;8.30;99.90;;;;;;5107705;27;21146;-78
2023/04/11 07:11:17;;;;;;;;;;;8.30;99.90;;;;;;5111233;27;20451;-78
2023/04/11 07:13:43;;;;;;;;;;;8.40;99.90;;;;;;5103989;27;20269;-79
2023/04/11 07:16:08;;;;;;;;;;;8.40;99.90;;;;;;5088950;27;19934;-78
2023/04/11 07:18:34;;;;;;;;;;;8.40;99.90;;;;;;5088660;27;19914;-78
2023/04/11 07:21:00;;;;;;;;;;;8.50;99.90;;;;;;5105568;27;20059;-79
2023/04/11 07:23:25;;;;;;;;;;;8.50;99.90;;;;;;5082061;27;20470;-79
2023/04/11 07:25:53;;;;;;;;;;;8.60;99.90;;;;;;5101971;27;19919;-79
2023/04/11 07:28:20;;;;;;;;;;;8.60;99.90;;;;;;5106399;27;20388;-79
2023/04/11 07:30:46;;;;;;;;;;;8.60;99.90;;;;;;5088594;27;19917;-79
2023/04/11 07:33:11;;;;;;;;;;;8.60;99.90;;;;;;5088589;27;19926;-79
2023/04/11 07:35:37;;;;;;;;;;;8.60;99.90;;;;;;5101585;28;20790;-79
2023/04/11 07:38:03;;;;;;;;;;;8.60;99.90;;;;;;5103961;28;19952;-78
2023/04/11 07:40:29;;;;;;;;;;;8.60;99.90;;;;;;5089625;28;19915;-79
2023/04/11 07:42:54;;;;;;;;;;;8.60;99.90;;;;;;5098676;27;20645;-79
2023/04/11 07:45:20;;;;;;;;;;;8.50;99.90;;;;;;5107206;27;19967;-79
2023/04/11 07:47:46;;;;;;;;;;;8.50;99.90;;;;;;5089332;28;20280;-79
2023/04/11 07:50:11;;;;;;;;;;;8.50;99.90;;;;;;5104055;28;19942;-79
2023/04/11 07:52:37;;;;;;;;;;;8.50;99.90;;;;;;5087493;28;20201;-79
2023/04/11 07:55:03;;;;;;;;;;;8.50;99.90;;;;;;5106977;28;20371;-78
2023/04/11 07:57:28;;;;;;;;;;;8.60;99.90;;;;;;5106140;27;19930;-78
2023/04/11 07:59:55;;;;;;;;;;;8.60;99.90;;;;;;5086866;28;20399;-79
2023/04/11 08:02:22;;;;;;;;;;;8.60;99.90;;;;;;5090986;28;19940;-79
2023/04/11 08:04:47;;;;;;;;;;;8.60;99.90;;;;;;5103649;27;19914;-79
2023/04/11 08:07:13;;;;;;;;;;;8.50;99.90;;;;;;5103948;27;20381;-79
2023/04/11 08:09:38;;;;;;;;;;;8.50;99.90;;;;;;5111358;27;19924;-79
2023/04/11 08:12:05;;;;;;;;;;;8.40;99.90;;;;;;5086927;28;20014;-79
2023/04/11 08:14:30;;;;;;;;;;;8.30;99.90;;;;;;5104218;27;21067;-79
2023/04/11 08:16:56;;;;;;;;;;;8.30;99.90;;;;;;5108256;27;21104;-77
2023/04/11 08:19:21;;;;;;;;;;;8.20;99.90;;;;;;5090264;27;19999;-77
2023/04/11 08:21:47;;;;;;;;;;;8.20;99.90;;;;;;5098972;28;19927;-78
2023/04/11 08:24:12;;;;;;;;;;;8.10;99.90;;;;;;5090960;28;19915;-79
2023/04/11 08:26:38;;;;;;;;;;;8.10;99.90;;;;;;5087960;28;19926;-79
2023/04/11 08:29:03;;;;;;;;;;;8.10;99.90;;;;;;5087300;28;20578;-78
2023/04/11 08:31:31;;;;;;;;;;;8.10;99.90;;;;;;5091737;28;19922;-77
2023/04/11 08:33:56;;;;;;;;;;;8.10;99.90;;;;;;5088880;27;19916;-78
2023/04/11 08:36:22;;;;;;;;;;;8.10;99.90;;;;;;5088623;28;19920;-77
2023/04/11 08:38:47;;;;;;;;;;;8.10;99.90;;;;;;5102573;27;20044;-78
2023/04/11 08:41:13;;;;;;;;;;;8.10;99.90;;;;;;5105918;27;20395;-78
2023/04/11 08:43:39;;;;;;;;;;;8.20;99.90;;;;;;5112221;27;20283;-78
2023/04/11 08:46:06;;;;;;;;;;;8.30;99.90;;;;;;5094830;27;19926;-78
2023/04/11 08:48:32;;;;;;;;;;;8.30;99.90;;;;;;5091785;27;20383;-78
2023/04/11 08:50:57;;;;;;;;;;;8.40;99.90;;;;;;5080781;27;19923;-78
2023/04/11 08:53:24;;;;;;;;;;;8.50;99.90;;;;;;5080202;27;19924;-78
2023/04/11 08:55:49;;;;;;;;;;;8.50;99.90;;;;;;5097176;27;19923;-78
2023/04/11 08:58:15;;;;;;;;;;;8.60;99.90;;;;;;5102359;27;20535;-78
2023/04/11 09:00:41;;;;;;;;;;;8.60;99.90;;;;;;5098860;27;19920;-77
2023/04/11 09:03:07;;;;;;;;;;;8.60;99.90;;;;;;5066261;27;20375;-77
2023/04/11 09:05:35;;;;;;;;;;;8.60;99.90;;;;;;5068755;27;20002;-79
2023/04/11 09:08:05;;;;;;;;;;;8.50;99.90;;;;;;5070912;27;20042;-78
2023/04/11 09:10:31;;;;;;;;;;;8.40;99.90;;;;;;5083120;27;19971;-79
2023/04/11 09:12:57;;;;;;;;;;;8.30;99.90;;;;;;5094227;27;19981;-78
2023/04/11 09:15:24;;;;;;;;;;;8.40;99.90;;;;;;5105435;27;19915;-79
2023/04/11 09:17:50;;;;;;;;;;;8.30;99.90;;;;;;5104692;27;19918;-77
2023/04/11 09:20:16;;;;;;;;;;;8.30;99.90;;;;;;5100114;27;19923;-79
2023/04/11 09:22:42;;;;;;;;;;;8.20;99.90;;;;;;5090221;28;19919;-78
2023/04/11 09:25:08;;;;;;;;;;;8.20;99.90;;;;;;5113604;27;19923;-78
2023/04/11 09:27:33;;;;;;;;;;;8.20;99.90;;;;;;5099111;27;19924;-78
2023/04/11 09:30:00;;;;;;;;;;;8.20;99.90;;;;;;5082776;27;19943;-77
2023/04/11 09:32:33;;;;;;;;;;;8.30;99.90;;;;;;5100205;27;19931;-79
2023/04/11 09:35:09;;;;;;;;;;;8.40;99.90;;;;;;5081686;27;19934;-79
2023/04/11 09:37:43;;;;;;;;;;;8.60;99.90;;;;;;5096635;27;20016;-77
2023/04/11 09:40:08;;;;;;;;;;;8.60;99.90;;;;;;5080141;27;19923;-78
2023/04/11 09:42:34;;;;;;;;;;;8.60;99.90;;;;;;5096584;27;19927;-77
2023/04/11 09:45:00;;;;;;;;;;;8.50;99.90;;;;;;5093548;27;19979;-77
2023/04/11 09:47:31;;;;;;;;;;;8.40;99.90;;;;;;5102808;27;20010;-77
2023/04/11 09:49:57;;;;;;;;;;;8.30;99.90;;;;;;5110638;27;20404;-77
2023/04/11 09:52:23;;;;;;;;;;;8.30;99.90;;;;;;5086182;27;19947;-77
2023/04/11 09:54:49;;;;;;;;;;;8.20;99.90;;;;;;5105706;27;19963;-77
2023/04/11 09:57:15;;;;;;;;;;;8.00;99.90;;;;;;5082522;27;19927;-77
2023/04/11 09:59:41;;;;;;;;;;;8.00;99.90;;;;;;5096655;27;20014;-77
2023/04/11 10:02:07;;;;;;;;;;;7.90;99.90;;;;;;5088190;27;19919;-77
2023/04/11 10:04:33;;;;;;;;;;;7.90;99.90;;;;;;5095908;27;19915;-77
2023/04/11 10:07:11;;;;;;;;;;;7.90;99.90;;;;;;5083836;27;19916;-81
2023/04/11 10:09:38;;;;;;;;;;;7.90;99.90;;;;;;5094816;27;20011;-77
2023/04/11 10:12:04;;;;;;;;;;;8.00;99.90;;;;;;5100168;27;19924;-77
2023/04/11 10:14:35;;;;;;;;;;;8.00;99.90;;;;;;5086360;27;20846;-77
2023/04/11 10:17:11;;;;;;;;;;;8.00;99.90;;;;;;5084213;27;19931;-77
2023/04/11 10:19:37;;;;;;;;;;;8.10;99.90;;;;;;5085793;27;19923;-77
2023/04/11 10:22:02;;;;;;;;;;;8.00;99.90;;;;;;5081153;27;19915;-78
2023/04/11 10:24:28;;;;;;;;;;;8.10;99.90;;;;;;5106013;27;20007;-77
2023/04/11 10:26:54;;;;;;;;;;;8.10;99.90;;;;;;5109799;27;19975;-76
2023/04/11 10:29:33;;;;;;;;;;;8.10;99.90;;;;;;5110910;27;19968;-77
2023/04/11 10:32:12;;;;;;;;;;;8.10;99.90;;;;;;5086229;27;19958;-77
2023/04/11 10:34:39;;;;;;;;;;;8.20;99.90;;;;;;5100669;27;19923;-77
2023/04/11 10:37:08;;;;;;;;;;;8.40;99.90;;;;;;5081427;27;20481;-77
2023/04/11 10:39:52;;;;;;;;;;;8.40;99.90;;;;;;5093687;27;19920;-76
2023/04/11 10:42:28;;;;;;;;;;;8.50;99.90;;;;;;5084061;27;19985;-77
2023/04/11 10:45:12;;;;;;;;;;;8.60;99.90;;;;;;5083249;27;20556;-77
2023/04/11 10:47:37;;;;;;;;;;;8.80;99.90;;;;;;5097479;27;20021;-77
2023/04/11 10:50:03;;;;;;;;;;;9.10;99.90;;;;;;5096405;27;20002;-77
2023/04/11 10:52:36;;;;;;;;;;;9.30;99.90;;;;;;5073407;27;19920;-76
2023/04/11 10:55:13;;;;;;;;;;;9.40;99.90;;;;;;5094130;27;19915;-77
2023/04/11 10:57:59;;;;;;;;;;;9.50;99.90;;;;;;5095112;27;19930;-76
2023/04/11 11:00:26;;;;;;;;;;;9.50;99.90;;;;;;5080553;27;20046;-77
2023/04/11 11:02:52;;;;;;;;;;;9.60;99.90;;;;;;5090649;27;19924;-76
2023/04/11 11:05:19;;;;;;;;;;;9.60;99.90;;;;;;5084693;27;19922;-76
2023/04/11 11:07:45;;;;;;;;;;;9.60;99.90;;;;;;5079416;27;20151;-76
2023/04/11 11:10:10;;;;;;;;;;;9.50;99.90;;;;;;5092495;27;19919;-77
2023/04/11 11:12:36;;;;;;;;;;;9.40;99.90;;;;;;5084599;27;19926;-77
2023/04/11 11:15:11;;;;;;;;;;;9.20;99.90;;;;;;5102882;27;19964;-76
2023/04/11 11:17:37;;;;;;;;;;;9.00;99.90;;;;;;5102827;27;20276;-77
2023/04/11 11:20:08;;;;;;;;;;;8.90;99.90;;;;;;5085634;27;19919;-77
2023/04/11 11:22:34;;;;;;;;;;;9.00;99.90;;;;;;5073213;27;20065;-76
2023/04/11 11:25:07;;;;;;;;;;;9.20;99.90;;;;;;5096924;27;19915;-76
2023/04/11 11:27:33;;;;;;;;;;;9.30;99.90;;;;;;5084400;27;19934;-78
2023/04/11 11:30:09;;;;;;;;;;;9.40;99.90;;;;;;5089489;27;19978;-77
2023/04/11 11:32:34;;;;;;;;;;;9.40;99.90;;;;;;5088593;27;19942;-77
2023/04/11 11:35:11;;;;;;;;;;;9.30;99.90;;;;;;5082074;27;20296;-81
2023/04/11 11:37:36;;;;;;;;;;;9.10;99.90;;;;;;5092059;27;19919;-78
2023/04/11 11:40:08;;;;;;;;;;;9.00;99.90;;;;;;5092660;27;19946;-77
2023/04/11 11:42:35;;;;;;;;;;;9.00;99.90;;;;;;5078071;27;19926;-77
2023/04/11 11:45:20;;;;;;;;;;;9.00;99.90;;;;;;5102331;27;20017;-77
2023/04/11 11:47:47;;;;;;;;;;;9.20;99.90;;;;;;5091910;27;19994;-77
2023/04/11 11:50:31;;;;;;;;;;;9.40;99.90;;;;;;5071943;27;19931;-76
2023/04/11 11:53:13;;;;;;;;;;;9.40;99.90;;;;;;5105055;27;19930;-77
2023/04/11 11:55:39;;;;;;;;;;;9.30;99.90;;;;;;5083679;28;20368;-77
2023/04/11 11:58:04;;;;;;;;;;;9.20;99.90;;;;;;5092776;27;19915;-76
2023/04/11 12:00:33;;;;;;;;;;;9.10;99.90;;;;;;5085557;27;20267;-77
2023/04/11 12:03:00;;;;;;;;;;;9.00;99.90;;;;;;5100076;28;19923;-77
2023/04/11 12:05:28;;;;;;;;;;;9.00;99.90;;;;;;5103825;28;19923;-77
2023/04/11 12:07:55;;;;;;;;;;;8.90;99.90;;;;;;5100914;27;19916;-78
2023/04/11 12:11:11;;;;;;;1.95;0.50;;;8.90;99.90;;;;;;5098694;27;20115;-77
2023/04/11 12:13:36;;;;;;;2.00;0.45;;;9.10;99.90;;;;;;5038888;27;20037;-76
2023/04/11 12:16:02;;;;;;;4.43;0.75;;;9.10;99.90;;;;;;5011275;28;20041;-76
2023/04/11 12:18:28;;;;;;;3.00;0.40;;;9.30;99.90;;;;;;5050566;28;20037;-76
2023/04/11 12:20:54;;;;;;;2.85;0.57;;;9.50;99.90;;;;;;5025764;28;20057;-75
2023/04/11 12:23:20;;;;;;;2.75;0.50;;;9.60;99.90;;;;;;5060724;28;20053;-75
2023/04/11 12:25:46;;;;;;;2.58;0.70;;;9.80;99.90;;;;;;5045236;28;20407;-76
2023/04/11 12:28:12;;;;;;;3.17;0.60;;;9.90;99.90;;;;;;5011350;28;20125;-76
2023/04/11 12:30:38;;;;;;;3.20;0.82;;;10.00;99.90;;;;;;5010674;28;20096;-77
2023/04/11 12:33:04;;;;;;;2.10;0.30;;;10.00;99.90;;;;;;5050115;28;20529;-78
2023/04/11 12:35:31;;;;;;;1.13;0.40;;;9.80;99.90;;;;;;5034729;28;20502;-77
2023/04/11 12:37:56;;;;;;;10.05;0.80;;;9.70;99.90;;;;;;5034333;28;20048;-76
2023/04/11 12:40:23;;;;;;;2.28;0.52;;;9.60;99.90;;;;;;5014884;28;21401;-77
2023/04/11 12:42:49;;;;;;;0.85;0.47;;;9.60;99.90;;;;;;5025377;28;20033;-77
2023/04/11 12:45:15;;;;;;;2.38;0.50;;;9.70;99.90;;;;;;5040857;28;20092;-76
2023/04/11 12:47:41;;;;;;;2.17;0.70;;;9.80;99.90;;;;;;5040853;28;20460;-78
2023/04/11 12:50:09;;;;;;;0.82;0.32;;;9.80;99.90;;;;;;5007931;28;20179;-77
2023/04/11 12:52:35;;;;;;;2.22;0.60;;;10.00;99.90;;;;;;5042062;28;20499;-77
2023/04/11 12:55:01;;;;;;;5.63;1.13;;;10.00;99.90;;;;;;5045471;28;20527;-77
2023/04/11 12:57:27;;;;;;;3.85;0.70;;;10.10;99.90;;;;;;5016382;28;20052;-78
2023/04/11 12:59:52;;;;;;;1.35;0.93;;;10.20;99.90;;;;;;5050369;28;20484;-78
2023/04/11 13:02:21;;;;;;;2.40;0.70;;;10.10;99.90;;;;;;5062488;28;20138;-78
2023/04/11 13:04:52;;;;;;;1.80;0.75;;;10.20;99.90;;;;;;5062896;28;20049;-77
2023/04/11 13:07:18;;;;;;;1.58;0.77;;;10.20;99.90;;;;;;5010505;28;20613;-78
2023/04/11 13:09:44;;;;;;;5.30;0.77;;;10.30;99.90;;;;;;5008844;28;20094;-78
2023/04/11 13:12:10;;;;;;;3.42;0.70;;;10.30;99.90;;;;;;5028258;28;20444;-78
2023/04/11 13:14:36;;;;;;;4.53;0.55;;;10.30;99.90;;;;;;5039889;28;20034;-77
2023/04/11 13:17:02;;;;;;;2.45;0.45;;;10.30;99.90;;;;;;5046963;28;20507;-77
2023/04/11 13:19:28;;;;;;;2.50;0.60;;;10.30;99.90;;;;;;5014140;28;20050;-77
2023/04/11 13:21:54;;;;;;;1.13;0.45;;;10.20;99.90;;;;;;5023487;28;21013;-77
2023/04/11 13:24:19;;;;;;;3.22;0.40;;;10.10;99.90;;;;;;5003521;28;20045;-77
2023/04/11 13:26:45;;;;;;;7.70;0.93;;;10.10;99.90;;;;;;5029780;28;20030;-77
2023/04/11 13:29:11;;;;;;;8.63;0.70;;;10.10;99.90;;;;;;5011025;28;20053;-77
2023/04/11 13:31:36;;;;;;;1.50;0.50;;;10.10;99.90;;;;;;4997942;28;20601;-77
2023/04/11 13:34:02;;;;;;;4.18;0.50;;;10.20;99.90;;;;;;5047146;28;20033;-77
2023/04/11 13:36:28;;;;;;;8.38;0.65;;;10.30;99.90;;;;;;5014667;28;20049;-77
2023/04/11 13:38:55;;;;;;;3.92;0.93;;;10.30;99.90;;;;;;5017712;28;20050;-77
2023/04/11 13:41:21;;;;;;;2.92;0.50;;;10.20;99.90;;;;;;5017711;28;20067;-77
2023/04/11 13:43:48;;;;;;;5.10;0.93;;;10.20;99.90;;;;;;5029929;28;20139;-77
2023/04/11 13:46:15;;;;;;;1.58;0.73;;;10.20;99.90;;;;;;5020629;28;20053;-78
2023/04/11 13:48:41;;;;;;;2.40;0.43;;;10.10;99.90;;;;;;5003717;28;20041;-77
2023/04/11 13:51:07;;;;;;;2.00;0.30;;;10.20;99.90;;;;;;4999162;28;20034;-77
2023/04/11 13:53:33;;;;;;;3.33;0.50;;;10.20;99.90;;;;;;5012378;28;20052;-77
2023/04/11 13:55:59;;;;;;;0.77;0.50;;;10.30;99.90;;;;;;5004040;28;20045;-77
2023/04/11 13:58:24;;;;;;;4.15;0.47;;;10.30;99.90;;;;;;5019161;28;20035;-76
2023/04/11 14:00:50;;;;;;;4.80;0.65;;;10.30;99.90;;;;;;5036555;28;20056;-77
2023/04/11 14:03:16;;;;;;;3.90;0.50;;;10.20;99.90;;;;;;5004389;28;20061;-78
2023/04/11 14:05:42;;;;;;;1.77;0.40;;;10.20;99.90;;;;;;4996867;28;20048;-76
2023/04/11 14:08:07;;;;;;;2.17;0.38;;;10.10;99.90;;;;;;5052385;28;20116;-77
2023/04/11 14:10:33;;;;;;;0.75;0.35;;;10.10;99.90;;;;;;5016790;28;20054;-77